createdAt,value
2024-05-09T00:00:00.350Z,81.67
2024-05-09T00:01:32.164Z,82.52
2024-05-09T00:03:07.098Z,81.64
2024-05-09T00:04:39.610Z,81.71
2024-05-09T00:06:11.460Z,82.14
2024-05-09T00:07:43.385Z,81.33
2024-05-09T00:09:15.187Z,80.72
2024-05-09T00:10:47.018Z,80.55
2024-05-09T00:12:18.861Z,80.94
2024-05-09T00:13:50.907Z,80.12
2024-05-09T00:15:22.739Z,79.69
2024-05-09T00:16:54.532Z,80.38
2024-05-09T00:18:26.446Z,81.12
2024-05-09T00:19:58.533Z,80.88
2024-05-09T00:21:30.395Z,80.82
2024-05-09T00:23:02.229Z,81.54
2024-05-09T00:24:34.043Z,82.40
2024-05-09T00:26:05.862Z,81.21
2024-05-09T00:27:37.648Z,82.93
2024-05-09T00:29:09.490Z,82.14
2024-05-09T00:30:41.408Z,81.62
2024-05-09T00:32:13.242Z,82.96
2024-05-09T00:33:45.097Z,82.45
2024-05-09T00:35:16.919Z,80.79
2024-05-09T00:36:48.638Z,80.16
2024-05-09T00:38:20.402Z,80.12
2024-05-09T00:39:52.138Z,81.33
2024-05-09T00:41:23.928Z,79.58
2024-05-09T00:42:55.663Z,79.39
2024-05-09T00:44:27.504Z,80.57
2024-05-09T00:46:01.975Z,80.87
2024-05-09T00:47:34.426Z,81.07
2024-05-09T00:49:08.491Z,79.37
2024-05-09T00:50:42.411Z,79.24
2024-05-09T00:52:14.258Z,78.78
2024-05-09T00:53:46.890Z,78.40
2024-05-09T00:55:18.651Z,79.28
2024-05-09T00:56:52.461Z,79.37
2024-05-09T00:58:27.602Z,79.88
2024-05-09T00:59:59.898Z,79.82
2024-05-09T01:01:31.775Z,80.82
2024-05-09T01:03:03.776Z,80.41
2024-05-09T01:04:35.769Z,80.37
2024-05-09T01:06:07.491Z,80.64
2024-05-09T01:07:39.265Z,81.31
2024-05-09T01:09:11.130Z,80.79
2024-05-09T01:10:45.087Z,82.66
2024-05-09T01:12:18.785Z,81.79
2024-05-09T01:13:50.679Z,79.79
2024-05-09T01:15:22.448Z,79.09
2024-05-09T01:16:54.379Z,80.59
2024-05-09T01:18:26.279Z,81.14
2024-05-09T01:19:58.129Z,80.21
2024-05-09T01:21:29.860Z,81.00
2024-05-09T01:23:06.684Z,80.35
2024-05-09T01:24:38.552Z,80.59
2024-05-09T01:26:10.414Z,82.40
2024-05-09T01:27:42.164Z,82.59
2024-05-09T01:29:14.219Z,81.26
2024-05-09T01:30:46.056Z,81.08
2024-05-09T01:32:17.879Z,79.32
2024-05-09T01:33:49.894Z,79.82
2024-05-09T01:35:23.710Z,80.61
2024-05-09T01:36:55.708Z,80.04
2024-05-09T01:38:27.463Z,78.73
2024-05-09T01:39:59.215Z,78.91
2024-05-09T01:41:31.759Z,80.50
2024-05-09T01:43:03.666Z,81.79
2024-05-09T01:44:35.398Z,79.87
2024-05-09T01:46:14.231Z,79.08
2024-05-09T01:47:46.283Z,78.95
2024-05-09T01:49:18.437Z,79.41
2024-05-09T01:50:50.321Z,79.63
2024-05-09T01:52:22.080Z,79.98
2024-05-09T01:53:56.308Z,80.00
2024-05-09T01:55:28.198Z,78.28
2024-05-09T01:57:00.148Z,77.06
2024-05-09T01:58:31.905Z,76.83
2024-05-09T02:00:07.665Z,77.10
2024-05-09T02:01:56.199Z,77.87
2024-05-09T02:03:29.772Z,81.04
2024-05-09T02:05:01.672Z,80.02
2024-05-09T02:06:39.699Z,80.30
2024-05-09T02:08:24.080Z,79.44
2024-05-09T02:09:55.844Z,79.73
2024-05-09T02:11:27.643Z,80.46
2024-05-09T02:12:59.382Z,81.34
2024-05-09T02:14:31.184Z,80.88
2024-05-09T02:16:03.028Z,81.02
2024-05-09T02:17:34.846Z,80.04
2024-05-09T02:19:06.745Z,77.82
2024-05-09T02:20:44.238Z,76.61
2024-05-09T02:22:16.101Z,76.24
2024-05-09T02:23:47.847Z,76.62
2024-05-09T02:25:22.009Z,78.43
2024-05-09T02:26:53.943Z,78.37
2024-05-09T02:28:25.635Z,77.54
2024-05-09T02:29:57.390Z,78.55
2024-05-09T02:31:29.053Z,79.31
2024-05-09T02:33:01.018Z,79.73
2024-05-09T02:34:32.879Z,79.13
2024-05-09T02:36:05.628Z,78.91
2024-05-09T02:37:37.340Z,79.56
2024-05-09T02:39:09.034Z,79.03
2024-05-09T02:40:41.021Z,78.66
2024-05-09T02:42:12.877Z,79.52
2024-05-09T02:43:44.633Z,81.12
2024-05-09T02:45:16.320Z,79.41
2024-05-09T02:46:48.119Z,79.82
2024-05-09T02:48:20.069Z,77.19
2024-05-09T02:49:52.026Z,77.57
2024-05-09T02:51:23.764Z,76.73
2024-05-09T02:52:55.551Z,76.00
2024-05-09T02:54:27.351Z,76.03
2024-05-09T02:55:59.380Z,74.81
2024-05-09T02:57:31.083Z,74.30
2024-05-09T02:59:02.868Z,74.98
2024-05-09T03:00:39.333Z,75.83
2024-05-09T03:02:13.738Z,75.86
2024-05-09T03:03:48.445Z,75.37
2024-05-09T03:05:20.340Z,77.35
2024-05-09T03:06:52.186Z,77.02
2024-05-09T03:08:23.959Z,77.82
2024-05-09T03:09:55.664Z,79.05
2024-05-09T03:11:27.437Z,78.70
2024-05-09T03:12:59.566Z,79.39
2024-05-09T03:14:31.342Z,78.62
2024-05-09T03:16:03.182Z,78.13
2024-05-09T03:17:35.217Z,76.24
2024-05-09T03:19:07.180Z,75.14
2024-05-09T03:20:39.491Z,75.18
2024-05-09T03:22:12.530Z,76.18
2024-05-09T03:23:44.462Z,75.68
2024-05-09T03:25:16.354Z,74.53
2024-05-09T03:26:48.335Z,75.82
2024-05-09T03:28:20.051Z,74.72
2024-05-09T03:29:51.797Z,75.31
2024-05-09T03:31:23.515Z,75.04
2024-05-09T03:32:55.290Z,76.75
2024-05-09T03:34:27.128Z,77.32
2024-05-09T03:35:58.827Z,79.21
2024-05-09T03:37:30.539Z,79.17
2024-05-09T03:39:02.243Z,78.92
2024-05-09T03:40:33.996Z,78.25
2024-05-09T03:42:05.758Z,77.17
2024-05-09T03:43:37.496Z,77.02
2024-05-09T03:45:09.247Z,77.43
2024-05-09T03:46:40.986Z,76.74
2024-05-09T03:48:13.162Z,77.10
2024-05-09T03:49:45.145Z,77.40
2024-05-09T03:51:16.966Z,76.86
2024-05-09T03:52:48.703Z,76.52
2024-05-09T03:54:20.561Z,78.32
2024-05-09T03:55:52.306Z,77.93
2024-05-09T03:57:24.108Z,78.22
2024-05-09T03:58:56.486Z,79.80
2024-05-09T04:00:35.652Z,78.50
2024-05-09T04:02:10.406Z,77.74
2024-05-09T04:03:42.361Z,78.57
2024-05-09T04:05:15.179Z,79.10
2024-05-09T04:06:46.933Z,79.50
2024-05-09T04:08:18.843Z,78.71
2024-05-09T04:09:50.614Z,78.83
2024-05-09T04:11:22.439Z,79.24
2024-05-09T04:12:54.520Z,79.89
2024-05-09T04:14:26.408Z,79.43
2024-05-09T04:15:58.144Z,78.03
2024-05-09T04:17:30.093Z,77.19
2024-05-09T04:19:02.240Z,76.40
2024-05-09T04:20:38.783Z,77.60
2024-05-09T04:22:12.524Z,77.63
2024-05-09T04:23:44.278Z,78.28
2024-05-09T04:25:16.076Z,78.68
2024-05-09T04:26:47.789Z,78.87
2024-05-09T04:28:19.531Z,78.72
2024-05-09T04:29:51.229Z,78.95
2024-05-09T04:31:23.145Z,79.30
2024-05-09T04:32:55.089Z,79.81
2024-05-09T04:34:26.907Z,79.78
2024-05-09T04:35:58.672Z,79.16
2024-05-09T04:37:30.541Z,78.14
2024-05-09T04:39:02.237Z,78.06
2024-05-09T04:40:36.710Z,78.80
2024-05-09T04:42:09.339Z,78.53
2024-05-09T04:43:41.105Z,80.37
2024-05-09T04:45:12.890Z,79.05
2024-05-09T04:46:44.743Z,79.72
2024-05-09T04:48:17.112Z,80.14
2024-05-09T04:49:48.996Z,80.32
2024-05-09T04:51:20.734Z,80.06
2024-05-09T04:52:52.466Z,80.86
2024-05-09T04:54:33.678Z,80.50
2024-05-09T04:56:08.447Z,82.54
2024-05-09T04:57:40.178Z,82.78
2024-05-09T04:59:11.927Z,81.00
2024-05-09T05:00:43.795Z,80.14
2024-05-09T05:02:15.719Z,81.12
2024-05-09T05:03:47.793Z,80.37
2024-05-09T05:05:19.741Z,82.08
2024-05-09T05:06:51.599Z,83.24
2024-05-09T05:08:23.463Z,84.69
2024-05-09T05:09:55.254Z,83.34
2024-05-09T05:11:27.042Z,82.42
2024-05-09T05:13:19.974Z,84.56
2024-05-09T05:14:53.358Z,84.82
2024-05-09T05:16:26.112Z,83.19
2024-05-09T05:17:58.022Z,85.11
2024-05-09T05:19:29.921Z,82.50
2024-05-09T05:21:01.863Z,82.06
2024-05-09T05:22:33.644Z,82.65
2024-05-09T05:24:05.653Z,82.54
2024-05-09T05:25:37.600Z,84.44
2024-05-09T05:27:09.425Z,83.23
2024-05-09T05:28:41.149Z,83.80
2024-05-09T05:30:21.028Z,84.39
2024-05-09T05:31:57.116Z,85.47
2024-05-09T05:33:29.016Z,86.17
2024-05-09T05:35:00.884Z,85.48
2024-05-09T05:36:32.572Z,83.82
2024-05-09T05:38:07.037Z,82.01
2024-05-09T05:39:38.786Z,83.92
2024-05-09T05:41:10.662Z,86.67
2024-05-09T05:42:42.927Z,83.96
2024-05-09T05:44:15.882Z,84.56
2024-05-09T05:45:47.736Z,86.49
2024-05-09T05:47:19.648Z,87.52
2024-05-09T05:48:51.568Z,86.02
2024-05-09T05:50:28.096Z,86.34
2024-05-09T05:52:07.169Z,86.74
2024-05-09T05:53:38.957Z,88.88
2024-05-09T05:55:10.745Z,87.77
2024-05-09T05:56:42.476Z,86.85
2024-05-09T05:58:17.402Z,85.17
2024-05-09T05:59:49.183Z,84.43
2024-05-09T06:01:20.972Z,83.76
2024-05-09T06:02:53.353Z,84.43
2024-05-09T06:04:25.396Z,87.02
2024-05-09T06:05:57.279Z,86.09
2024-05-09T06:07:29.091Z,85.29
2024-05-09T06:09:00.885Z,85.05
2024-05-09T06:10:38.280Z,85.91
2024-05-09T06:12:12.295Z,85.52
2024-05-09T06:13:44.238Z,83.75
2024-05-09T06:15:15.970Z,84.99
2024-05-09T06:16:47.881Z,82.81
2024-05-09T06:18:19.954Z,82.55
2024-05-09T06:19:52.123Z,81.12
2024-05-09T06:21:23.909Z,82.45
2024-05-09T06:22:55.661Z,81.46
2024-05-09T06:24:27.562Z,82.80
2024-05-09T06:25:59.289Z,81.34
2024-05-09T06:27:31.034Z,80.45
2024-05-09T06:29:02.833Z,79.43
2024-05-09T06:30:40.188Z,79.12
2024-05-09T06:32:13.660Z,79.26
2024-05-09T06:33:45.615Z,77.95
2024-05-09T06:35:17.542Z,77.73
2024-05-09T06:36:49.224Z,78.04
2024-05-09T06:38:21.075Z,79.12
2024-05-09T06:39:52.804Z,79.00
2024-05-09T06:41:24.701Z,77.72
2024-05-09T06:44:29.645Z,77.67
2024-05-09T06:46:01.435Z,77.93
2024-05-09T06:47:33.289Z,77.91
2024-05-09T06:49:08.358Z,77.86
2024-05-09T06:50:41.525Z,76.87
2024-05-09T06:52:13.307Z,76.73
2024-05-09T06:53:45.059Z,75.06
2024-05-09T06:55:16.750Z,74.61
2024-05-09T06:56:48.492Z,74.83
2024-05-09T06:58:20.724Z,75.77
2024-05-09T06:59:52.579Z,76.50
2024-05-09T07:01:24.444Z,76.08
2024-05-09T07:02:56.340Z,74.83
2024-05-09T07:04:28.264Z,74.48
2024-05-09T07:06:00.077Z,74.99
2024-05-09T07:07:31.802Z,74.96
2024-05-09T07:09:03.625Z,74.62
2024-05-09T07:10:36.825Z,73.86
2024-05-09T07:12:09.165Z,73.41
2024-05-09T07:13:41.009Z,74.14
2024-05-09T07:15:12.728Z,74.51
2024-05-09T07:16:44.487Z,75.16
2024-05-09T07:18:18.432Z,73.67
2024-05-09T07:19:51.431Z,73.51
2024-05-09T07:21:23.658Z,72.65
2024-05-09T07:22:55.504Z,72.19
2024-05-09T07:24:27.269Z,72.42
2024-05-09T07:25:58.984Z,71.94
2024-05-09T07:27:30.715Z,72.00
2024-05-09T07:29:02.569Z,71.95
2024-05-09T07:30:35.122Z,72.58
2024-05-09T07:32:08.997Z,72.94
2024-05-09T07:33:40.826Z,73.01
2024-05-09T07:35:12.901Z,71.91
2024-05-09T07:36:44.706Z,71.51
2024-05-09T07:38:16.895Z,71.77
2024-05-09T07:39:48.624Z,72.29
2024-05-09T07:41:20.395Z,71.40
2024-05-09T07:42:52.150Z,71.95
2024-05-09T07:44:23.960Z,71.43
2024-05-09T07:45:59.164Z,70.28
2024-05-09T07:49:11.904Z,71.51
2024-05-09T07:53:34.273Z,69.13
2024-05-09T07:54:33.802Z,69.71
2024-05-09T07:56:06.326Z,67.46
2024-05-09T07:57:38.268Z,66.74
2024-05-09T07:59:10.000Z,66.41
2024-05-09T08:00:41.807Z,66.14
2024-05-09T08:02:13.715Z,67.82
2024-05-09T08:03:45.791Z,66.63
2024-05-09T08:05:17.755Z,67.11
2024-05-09T08:06:49.606Z,66.50
2024-05-09T08:08:23.377Z,65.06
2024-05-09T08:09:55.320Z,64.81
2024-05-09T08:11:27.117Z,63.84
2024-05-09T08:12:58.880Z,62.32
2024-05-09T08:14:31.313Z,62.23
2024-05-09T08:16:03.126Z,62.39
2024-05-09T08:17:35.272Z,60.96
2024-05-09T08:19:07.136Z,61.47
2024-05-09T08:20:40.275Z,60.86
2024-05-09T08:22:12.035Z,61.11
2024-05-09T08:23:43.799Z,60.84
2024-05-09T08:25:15.749Z,61.68
2024-05-09T08:26:47.649Z,62.37
2024-05-09T08:28:19.643Z,62.56
2024-05-09T08:29:51.557Z,61.68
2024-05-09T08:31:23.416Z,61.05
2024-05-09T08:32:55.300Z,60.45
2024-05-09T08:34:27.313Z,60.09
2024-05-09T08:35:59.054Z,60.92
2024-05-09T08:37:35.030Z,61.61
2024-05-09T08:39:09.763Z,59.65
2024-05-09T08:40:41.944Z,58.58
2024-05-09T08:42:17.602Z,58.76
2024-05-09T08:43:49.328Z,57.86
2024-05-09T08:45:21.767Z,58.47
2024-05-09T08:46:53.826Z,58.62
2024-05-09T08:48:26.275Z,58.98
2024-05-09T08:50:03.173Z,58.34
2024-05-09T08:51:35.729Z,57.55
2024-05-09T08:53:08.668Z,56.92
2024-05-09T08:54:40.764Z,56.60
2024-05-09T09:03:06.630Z,57.02
2024-05-09T09:04:41.006Z,56.10
2024-05-09T09:06:16.645Z,55.29
2024-05-09T09:07:51.386Z,54.32
2024-05-09T09:09:23.786Z,54.59
2024-05-09T09:10:58.782Z,55.08
2024-05-09T09:12:30.577Z,55.01
2024-05-09T09:14:02.355Z,55.76
2024-05-09T09:15:34.145Z,55.36
2024-05-09T09:17:13.693Z,56.69
2024-05-09T09:18:49.658Z,53.86
2024-05-09T09:20:28.765Z,54.20
2024-05-09T09:22:05.869Z,54.78
2024-05-09T09:23:39.466Z,54.16
2024-05-09T09:25:11.293Z,53.99
2024-05-09T09:26:45.196Z,53.00
2024-05-09T09:28:17.079Z,53.72
2024-05-09T09:29:49.139Z,54.00
2024-05-09T09:31:21.110Z,52.25
2024-05-09T09:32:53.155Z,53.07
2024-05-09T09:34:28.591Z,53.85
2024-05-09T09:36:04.192Z,52.12
2024-05-09T09:37:37.950Z,52.82
2024-05-09T09:39:10.053Z,52.52
2024-05-09T09:40:49.561Z,52.61
2024-05-09T09:42:23.483Z,53.18
2024-05-09T09:43:57.810Z,51.83
2024-05-09T09:45:31.401Z,51.87
2024-05-09T09:47:03.351Z,53.11
2024-05-09T09:48:36.514Z,51.52
2024-05-09T09:50:14.294Z,52.01
2024-05-09T09:51:49.518Z,51.53
2024-05-09T09:53:23.643Z,49.74
2024-05-09T09:54:57.259Z,49.55
2024-05-09T09:56:30.788Z,50.75
2024-05-09T09:58:04.320Z,51.53
2024-05-09T09:59:39.325Z,49.90
2024-05-09T10:01:11.322Z,49.55
2024-05-09T10:02:43.541Z,50.05
2024-05-09T10:04:19.026Z,49.73
2024-05-09T10:05:51.885Z,51.29
2024-05-09T10:07:24.696Z,50.24
2024-05-09T10:08:57.251Z,49.86
2024-05-09T10:10:33.466Z,49.73
2024-05-09T10:12:13.663Z,49.23
2024-05-09T10:13:46.483Z,50.71
2024-05-09T10:15:19.759Z,50.89
2024-05-09T10:16:51.498Z,48.55
2024-05-09T10:18:29.170Z,49.08
2024-05-09T10:20:14.509Z,48.37
2024-05-09T10:22:01.620Z,49.72
2024-05-09T10:23:36.565Z,49.34
2024-05-09T10:25:09.324Z,48.43
2024-05-09T10:26:41.216Z,47.94
2024-05-09T10:28:13.108Z,48.32
2024-05-09T10:29:52.495Z,48.27
2024-05-09T10:31:28.570Z,49.02
2024-05-09T10:33:00.390Z,48.94
2024-05-09T10:34:36.865Z,49.12
2024-05-09T10:36:12.811Z,49.42
2024-05-09T10:37:46.352Z,48.98
2024-05-09T10:39:19.795Z,48.94
2024-05-09T10:40:56.947Z,47.41
2024-05-09T10:42:28.867Z,48.25
2024-05-09T10:44:00.592Z,48.53
2024-05-09T10:45:32.759Z,47.89
2024-05-09T10:47:04.595Z,48.29
2024-05-09T10:48:37.420Z,48.48
2024-05-09T10:50:18.307Z,48.65
2024-05-09T10:51:57.308Z,47.17
2024-05-09T10:53:29.058Z,46.71
2024-05-09T10:55:02.299Z,46.30
2024-05-09T10:56:35.611Z,46.77
2024-05-09T10:58:17.718Z,45.98
2024-05-09T10:59:50.228Z,46.35
2024-05-09T11:01:22.186Z,46.33
2024-05-09T11:02:54.280Z,45.23
2024-05-09T11:04:27.900Z,46.94
2024-05-09T11:05:59.852Z,46.48
2024-05-09T11:07:31.767Z,46.31
2024-05-09T11:09:03.738Z,46.05
2024-05-09T11:10:36.537Z,45.59
2024-05-09T11:12:09.149Z,45.42
2024-05-09T11:13:44.452Z,43.93
2024-05-09T11:15:17.410Z,44.12
2024-05-09T11:17:05.770Z,42.48
2024-05-09T11:18:39.220Z,42.56
2024-05-09T11:20:17.071Z,43.59
2024-05-09T11:21:55.570Z,44.15
2024-05-09T11:23:30.137Z,46.79
2024-05-09T11:25:01.936Z,45.27
2024-05-09T11:26:35.332Z,44.75
2024-05-09T11:28:09.442Z,43.45
2024-05-09T11:29:47.788Z,43.03
2024-05-09T11:31:19.730Z,43.22
2024-05-09T11:32:52.818Z,43.93
2024-05-09T11:34:25.733Z,44.74
2024-05-09T11:35:57.657Z,43.38
2024-05-09T11:37:31.388Z,43.46
2024-05-09T11:39:04.110Z,43.14
2024-05-09T11:40:38.125Z,43.31
2024-05-09T11:42:09.984Z,43.86
2024-05-09T11:43:41.708Z,44.55
2024-05-09T11:45:13.624Z,43.26
2024-05-09T11:46:48.704Z,43.80
2024-05-09T11:48:20.620Z,44.87
2024-05-09T11:49:56.888Z,46.66
2024-05-09T11:51:28.819Z,45.53
2024-05-09T11:53:00.562Z,45.32
2024-05-09T11:54:32.366Z,44.86
2024-05-09T11:56:07.822Z,44.61
2024-05-09T11:57:39.834Z,44.89
2024-05-09T11:59:11.722Z,45.33
2024-05-09T12:00:46.469Z,43.93
2024-05-09T12:02:18.764Z,44.80
2024-05-09T12:03:51.877Z,44.43
2024-05-09T12:05:24.053Z,43.40
2024-05-09T12:07:02.328Z,43.00
2024-05-09T12:08:36.894Z,43.02
2024-05-09T12:10:14.227Z,43.67
2024-05-09T12:11:51.257Z,44.35
2024-05-09T12:13:23.324Z,43.86
2024-05-09T12:14:55.253Z,42.97
2024-05-09T12:16:27.179Z,43.27
2024-05-09T12:18:02.452Z,42.48
2024-05-09T12:19:35.962Z,43.22
2024-05-09T12:21:07.854Z,42.91
2024-05-09T12:22:39.573Z,41.56
2024-05-09T12:24:12.114Z,42.17
2024-05-09T12:25:47.277Z,42.10
2024-05-09T12:27:18.990Z,42.51
2024-05-09T12:28:50.844Z,42.81
2024-05-09T12:30:32.748Z,42.78
2024-05-09T12:32:09.343Z,43.15
2024-05-09T12:33:41.248Z,42.80
2024-05-09T12:35:16.725Z,42.66
2024-05-09T12:36:48.573Z,41.85
2024-05-09T12:38:20.318Z,41.53
2024-05-09T12:39:52.319Z,41.93
2024-05-09T12:41:26.692Z,41.69
2024-05-09T12:42:58.446Z,42.46
2024-05-09T12:44:30.239Z,42.33
2024-05-09T12:46:03.568Z,42.83
2024-05-09T12:47:38.503Z,41.56
2024-05-09T12:49:10.614Z,40.24
2024-05-09T12:50:45.814Z,40.65
2024-05-09T12:52:17.658Z,42.45
2024-05-09T12:53:49.437Z,41.36
2024-05-09T12:55:21.330Z,42.35
2024-05-09T12:56:53.158Z,42.74
2024-05-09T12:58:24.979Z,43.07
2024-05-09T12:59:56.853Z,42.13
2024-05-09T13:01:28.860Z,42.43
2024-05-09T13:03:01.109Z,42.83
2024-05-09T13:04:33.399Z,42.98
2024-05-09T13:06:05.445Z,41.21
2024-05-09T13:07:38.585Z,42.09
2024-05-09T13:09:11.837Z,42.41
2024-05-09T13:10:44.019Z,41.58
2024-05-09T13:12:15.958Z,41.28
2024-05-09T13:13:47.696Z,43.35
2024-05-09T13:15:19.404Z,41.76
2024-05-09T13:16:51.725Z,40.37
2024-05-09T13:18:23.557Z,39.32
2024-05-09T13:19:55.318Z,38.66
2024-05-09T13:21:27.040Z,39.01
2024-05-09T13:23:01.294Z,39.27
2024-05-09T13:24:33.137Z,38.66
2024-05-09T13:26:05.096Z,39.71
2024-05-09T13:27:36.817Z,39.95
2024-05-09T13:29:08.592Z,40.66
2024-05-09T13:30:42.117Z,41.23
2024-05-09T13:32:14.271Z,40.37
2024-05-09T13:33:46.105Z,39.21
2024-05-09T13:35:17.907Z,39.41
2024-05-09T13:36:49.843Z,40.75
2024-05-09T13:38:22.361Z,40.52
2024-05-09T13:39:54.184Z,40.35
2024-05-09T13:41:25.921Z,41.20
2024-05-09T13:42:57.709Z,40.84
2024-05-09T13:44:29.597Z,40.00
2024-05-09T13:46:01.359Z,40.27
2024-05-09T13:47:33.464Z,40.41
2024-05-09T13:49:07.110Z,39.36
2024-05-09T13:50:40.334Z,38.23
2024-05-09T13:52:12.058Z,37.49
2024-05-09T13:53:43.809Z,38.88
2024-05-09T13:55:15.757Z,38.27
2024-05-09T13:56:47.585Z,39.17
2024-05-09T13:58:19.753Z,38.85
2024-05-09T13:59:51.540Z,39.57
2024-05-09T14:01:23.422Z,39.15
2024-05-09T14:02:55.314Z,39.26
2024-05-09T14:04:27.330Z,39.37
2024-05-09T14:05:59.675Z,39.97
2024-05-09T14:07:32.149Z,39.68
2024-05-09T14:09:09.656Z,40.39
2024-05-09T14:10:44.534Z,40.47
2024-05-09T14:12:16.756Z,39.15
2024-05-09T14:13:48.485Z,40.40
2024-05-09T14:15:20.199Z,40.08
2024-05-09T14:16:52.046Z,39.84
2024-05-09T14:18:24.065Z,39.52
2024-05-09T14:19:55.916Z,40.38
2024-05-09T14:21:27.701Z,40.53
2024-05-09T14:23:00.706Z,39.59
2024-05-09T14:24:33.256Z,40.24
2024-05-09T14:26:05.225Z,39.89
2024-05-09T14:27:37.083Z,39.67
2024-05-09T14:29:08.809Z,40.38
2024-05-09T14:30:41.278Z,40.63
2024-05-09T14:32:13.216Z,41.25
2024-05-09T14:33:45.076Z,41.44
2024-05-09T14:35:17.041Z,40.66
2024-05-09T14:36:48.869Z,41.58
2024-05-09T14:38:20.832Z,42.18
2024-05-09T14:39:52.722Z,42.55
2024-05-09T14:41:24.509Z,41.92
2024-05-09T14:42:57.433Z,41.70
2024-05-09T14:44:30.739Z,41.41
2024-05-09T14:46:02.627Z,41.24
2024-05-09T14:47:34.763Z,42.61
2024-05-09T14:49:08.585Z,40.49
2024-05-09T14:50:42.350Z,40.45
2024-05-09T14:52:14.397Z,40.71
2024-05-09T14:53:46.338Z,40.53
2024-05-09T14:55:18.099Z,42.34
2024-05-09T14:56:51.238Z,41.11
2024-05-09T14:58:23.794Z,41.21
2024-05-09T14:59:55.729Z,41.28
2024-05-09T15:01:28.126Z,41.18
2024-05-09T15:03:00.485Z,41.27
2024-05-09T15:04:32.572Z,41.42
2024-05-09T15:06:04.820Z,41.35
2024-05-09T15:07:37.695Z,42.27
2024-05-09T15:09:10.177Z,40.87
2024-05-09T15:10:41.937Z,41.27
2024-05-09T15:12:13.798Z,41.63
2024-05-09T15:13:45.557Z,41.79
2024-05-09T15:15:18.024Z,40.95
2024-05-09T15:16:50.081Z,41.50
2024-05-09T15:18:22.192Z,41.91
2024-05-09T15:19:54.054Z,41.51
2024-05-09T15:21:25.881Z,41.29
2024-05-09T15:22:58.472Z,41.80
2024-05-09T15:24:30.322Z,40.85
2024-05-09T15:26:03.878Z,41.90
2024-05-09T15:27:35.646Z,41.70
2024-05-09T15:29:07.493Z,40.81
2024-05-09T15:30:40.664Z,40.56
2024-05-09T15:32:14.712Z,41.17
2024-05-09T15:33:46.549Z,41.47
2024-05-09T15:35:18.427Z,41.95
2024-05-09T15:36:51.341Z,41.45
2024-05-09T15:38:23.210Z,41.45
2024-05-09T15:39:54.965Z,40.97
2024-05-09T15:41:26.864Z,41.09
2024-05-09T15:42:58.638Z,41.78
2024-05-09T15:44:30.548Z,40.97
2024-05-09T15:46:02.468Z,41.71
2024-05-09T15:47:34.699Z,42.79
2024-05-09T15:49:06.724Z,41.37
2024-05-09T15:50:41.321Z,41.23
2024-05-09T15:52:17.959Z,40.83
2024-05-09T15:53:49.800Z,40.95
2024-05-09T15:55:21.730Z,41.81
2024-05-09T15:56:53.851Z,41.91
2024-05-09T15:58:25.802Z,41.81
2024-05-09T15:59:58.045Z,41.21
2024-05-09T16:01:30.148Z,41.38
2024-05-09T16:03:02.036Z,41.38
2024-05-09T16:04:34.016Z,41.36
2024-05-09T16:06:06.528Z,41.30
2024-05-09T16:07:39.124Z,40.98
2024-05-09T16:09:10.938Z,40.48
2024-05-09T16:10:45.886Z,40.99
2024-05-09T16:12:18.643Z,40.98
2024-05-09T16:13:50.385Z,41.73
2024-05-09T16:15:22.188Z,41.13
2024-05-09T16:16:54.176Z,41.23
2024-05-09T16:18:26.234Z,41.58
2024-05-09T16:19:58.245Z,41.02
2024-05-09T16:21:30.020Z,41.44
2024-05-09T16:23:01.820Z,40.75
2024-05-09T16:24:33.687Z,41.26
2024-05-09T16:26:06.214Z,42.97
2024-05-09T16:27:38.410Z,40.62
2024-05-09T16:29:10.228Z,42.03
2024-05-09T16:30:42.245Z,41.36
2024-05-09T16:32:14.044Z,41.52
2024-05-09T16:33:45.940Z,41.87
2024-05-09T16:35:17.802Z,41.11
2024-05-09T16:36:51.457Z,41.73
2024-05-09T16:38:23.387Z,41.40
2024-05-09T16:39:55.136Z,41.29
2024-05-09T16:41:26.896Z,40.66
2024-05-09T16:43:00.092Z,41.17
2024-05-09T16:44:33.640Z,41.08
2024-05-09T16:46:06.283Z,41.40
2024-05-09T16:47:38.698Z,40.58
2024-05-09T16:49:10.994Z,40.79
2024-05-09T16:50:42.861Z,40.55
2024-05-09T16:52:15.676Z,40.97
2024-05-09T16:53:47.507Z,40.65
2024-05-09T16:55:21.269Z,41.07
2024-05-09T16:56:53.192Z,41.43
2024-05-09T16:58:26.558Z,41.09
2024-05-09T16:59:58.357Z,41.73
2024-05-09T17:01:30.872Z,41.06
2024-05-09T17:03:02.818Z,41.35
2024-05-09T17:04:34.811Z,41.19
2024-05-09T17:06:06.688Z,44.22
2024-05-09T17:07:38.639Z,43.75
2024-05-09T17:09:12.021Z,42.94
2024-05-09T17:10:51.290Z,41.84
2024-05-09T17:12:25.382Z,41.94
2024-05-09T17:13:57.199Z,42.28
2024-05-09T17:15:28.935Z,42.24
2024-05-09T17:17:00.943Z,42.34
2024-05-09T17:18:32.846Z,41.86
2024-05-09T17:20:08.574Z,41.43
2024-05-09T17:21:44.287Z,41.58
2024-05-09T17:23:16.061Z,41.20
2024-05-09T17:24:47.845Z,41.21
2024-05-09T17:26:20.451Z,41.81
2024-05-09T17:27:52.281Z,41.57
2024-05-09T17:29:24.171Z,41.96
2024-05-09T17:30:55.997Z,42.52
2024-05-09T17:32:27.911Z,41.66
2024-05-09T17:34:00.295Z,42.18
2024-05-09T17:35:32.505Z,42.19
2024-05-09T17:37:04.663Z,41.98
2024-05-09T17:38:36.477Z,42.24
2024-05-09T17:40:16.608Z,42.06
2024-05-09T17:41:48.935Z,42.34
2024-05-09T17:43:21.238Z,42.26
2024-05-09T17:44:53.163Z,42.83
2024-05-09T17:46:25.081Z,43.51
2024-05-09T17:47:57.286Z,42.46
2024-05-09T17:49:29.389Z,42.04
2024-05-09T17:51:01.231Z,42.84
2024-05-09T17:52:32.974Z,43.25
2024-05-09T17:54:04.733Z,43.66
2024-05-09T17:55:37.066Z,45.17
2024-05-09T17:57:09.287Z,44.27
2024-05-09T17:58:41.397Z,44.46
2024-05-09T18:00:17.396Z,43.91
2024-05-09T18:01:52.918Z,44.26
2024-05-09T18:03:24.795Z,43.95
2024-05-09T18:04:56.848Z,44.18
2024-05-09T18:06:28.630Z,43.61
2024-05-09T18:08:00.422Z,43.93
2024-05-09T18:09:32.207Z,43.79
2024-05-09T18:11:04.307Z,43.80
2024-05-09T18:12:36.366Z,43.62
2024-05-09T18:14:08.212Z,44.69
2024-05-09T18:15:40.498Z,44.12
2024-05-09T18:17:13.486Z,43.93
2024-05-09T18:18:45.785Z,43.89
2024-05-09T18:20:28.317Z,44.18
2024-05-09T18:22:08.340Z,45.03
2024-05-09T18:23:40.142Z,45.02
2024-05-09T18:25:12.014Z,44.39
2024-05-09T18:26:44.066Z,44.95
2024-05-09T18:28:16.983Z,45.29
2024-05-09T18:29:50.175Z,45.33
2024-05-09T18:31:21.973Z,45.39
2024-05-09T18:32:53.759Z,45.15
2024-05-09T18:34:25.656Z,45.61
2024-05-09T18:35:58.040Z,45.26
2024-05-09T18:37:29.892Z,45.78
2024-05-09T18:39:01.798Z,45.71
2024-05-09T18:40:36.622Z,45.68
2024-05-09T18:42:09.935Z,46.17
2024-05-09T18:43:45.220Z,46.00
2024-05-09T18:45:20.187Z,45.69
2024-05-09T18:46:51.892Z,46.52
2024-05-09T18:48:23.778Z,46.52
2024-05-09T18:49:55.785Z,46.32
2024-05-09T18:51:28.000Z,46.41
2024-05-09T18:52:59.783Z,47.04
2024-05-09T18:54:31.598Z,47.12
2024-05-09T18:56:03.533Z,47.81
2024-05-09T18:57:35.360Z,47.70
2024-05-09T18:59:07.183Z,47.89
2024-05-09T19:00:41.609Z,47.96
2024-05-09T19:02:16.004Z,48.27
2024-05-09T19:03:48.520Z,48.33
2024-05-09T19:05:20.602Z,48.51
2024-05-09T19:06:52.544Z,50.33
2024-05-09T19:08:24.245Z,51.20
2024-05-09T19:09:56.071Z,51.07
2024-05-09T19:11:27.841Z,50.79
2024-05-09T19:12:59.792Z,50.89
2024-05-09T19:14:31.622Z,51.83
2024-05-09T19:16:03.613Z,52.13
2024-05-09T19:17:35.556Z,53.11
2024-05-09T19:19:07.650Z,53.18
2024-05-09T19:20:39.806Z,53.19
2024-05-09T19:22:11.783Z,53.27
2024-05-09T19:23:50.436Z,52.69
2024-05-09T19:25:23.831Z,53.71
2024-05-09T19:26:56.397Z,53.82
2024-05-09T19:28:28.131Z,53.04
2024-05-09T19:29:59.932Z,53.05
2024-05-09T19:31:31.759Z,52.95
2024-05-09T19:33:04.050Z,53.16
2024-05-09T19:34:35.942Z,53.26
2024-05-09T19:36:08.183Z,53.51
2024-05-09T19:37:42.121Z,52.63
2024-05-09T19:39:15.607Z,52.30
2024-05-09T19:40:47.598Z,53.27
2024-05-09T19:42:19.447Z,54.17
2024-05-09T19:43:51.134Z,54.81
2024-05-09T19:45:22.889Z,55.04
2024-05-09T19:46:54.842Z,54.63
2024-05-09T19:48:26.873Z,54.29
2024-05-09T19:49:58.717Z,54.46
2024-05-09T19:51:30.912Z,54.40
2024-05-09T19:53:03.101Z,55.33
2024-05-09T19:54:34.873Z,56.29
2024-05-09T19:56:06.891Z,55.07
2024-05-09T19:57:38.649Z,54.96
2024-05-09T19:59:13.644Z,55.82
2024-05-09T20:00:45.559Z,56.15
2024-05-09T20:02:17.876Z,55.66
2024-05-09T20:03:50.021Z,54.77
2024-05-09T20:05:22.233Z,54.34
2024-05-09T20:06:54.168Z,54.18